EIDW

Dublin Airport

Dublin, Ireland
METAR EIDW 190600Z VRB03KT 9999 -DZ FEW004 SCT007 BKN009 06/05 Q1003 NOSIG
Observed Flight Rules
Jan-19 @ 06:00 UTC (22 minutes ago) Instrument Flight Rules
Wind Visibility Clouds Conditions
Variable at 3 knots 10,000+ meters
  • Few at 400' AGL
  • Scattered at 700' AGL
  • Broken at 900' AGL
  • Light Drizzle
Temperatures Readings
Current 6°C / 43°F
Dewpoint 5°C / 41°F
Humidity 93%
Altimeter 29.62" Hg
Pressure 1002.92 hPa
Elevation 85
METAR EIDW 190600Z VRB03KT 9999 -DZ FEW004 SCT007 BKN009 06/05 Q1003 NOSIG
Observed Flight Rules
Jan-19 @ 06:00 UTC
(22 minutes ago)
IFR
Wind Visibility
Variable at 3 knots 10,000+ meters
Clouds
  • Few at 400' AGL
  • Scattered at 700' AGL
  • Broken at 900' AGL
Conditions
  • Light Drizzle
Temperature Dewpoint
6°C / 43°F 5°C / 41°F
Humidity Altimeter Pressure
93% 29.62" Hg 1002.92 hPa